Sincerity Ace — 3FFD7 — position and weather

sailwx.info

Track history (hours):
 
Tides and Currents Weather Stations Pressure Air Temp Water Temp Dewpoint Dewpoint Depression Visibility Wind Speed Wind Dir Waves Ship Positions

Sincerity Ace

Last reported at 2014-Sep-21 20:33 UTC. Time now 2014-Oct-01 14:19 UTC.
Position N 50°29' W 001°20'.
Warning: this ship's position is 9 days out of date.

Length 200 m; draft 9.5 m.

Type: Cargo ship. MMSI: 351690000.

Date/timePositionNaut miles runAvg speedWind from/ knotsBaromVisibWave heightAir tempDewpointWater temp
2014-Sep-21 20:33N 50°29' W 001°20'1716.3
2014-Sep-21 19:31N 50°29' W 000°54'1516.1
2014-Sep-21 18:33N 50°30' W 000°30'2016.9
2014-Sep-21 17:23N 50°31' E 000°02'1518.0
2014-Sep-21 16:34N 50°36' E 000°24'1919.1
2014-Sep-21 15:34N 50°44' E 000°51'2019.3
2014-Sep-21 14:31N 50°55' E 001°19'1818.4
2014-Sep-21 13:33N 51°08' E 001°37'1717.1
2014-Sep-21 12:34N 51°21' E 001°54'1716.7
2014-Sep-21 11:33N 51°34' E 002°11'8018.0
2014-Sep-21 07:08N 52°37' E 003°30'1119.0
2014-Sep-21 06:33N 52°46' E 003°41'1818.2
2014-Sep-21 05:33N 52°59' E 004°02'2417.4
2014-Sep-21 04:11N 53°17' E 004°28'1117.1
2014-Sep-21 03:34N 53°27' E 004°36'1717.1
2014-Sep-21 02:34N 53°34' E 005°01'1818.1
2014-Sep-21 01:34N 53°40' E 005°30'1817.9
2014-Sep-21 00:34N 53°43' E 006°00'1514.7
2014-Sep-20 23:33N 53°37' E 006°23'1716.9
2014-Sep-20 22:34N 53°30' E 006°49'1212.1
2014-Sep-20 21:33N 53°20' E 007°00'6 6.1
2014-Sep-20 20:31N 53°20' E 007°11'0 0.0
2014-Sep-20 19:31N 53°20' E 007°11'0 0.0
2014-Sep-20 18:31N 53°20' E 007°11'0 0.0
2014-Sep-20 17:31N 53°20' E 007°11'0 0.0
2014-Sep-20 16:31N 53°20' E 007°11'0 0.0
2014-Sep-20 15:31N 53°20' E 007°11'0 0.0
2014-Sep-20 14:31N 53°20' E 007°11'0 0.0
2014-Sep-20 13:31N 53°20' E 007°11'0 0.0
2014-Sep-20 12:31N 53°20' E 007°11'0 0.0
2014-Sep-20 11:31N 53°20' E 007°11'0 0.0
2014-Sep-20 10:31N 53°20' E 007°11'0 0.0
2014-Sep-20 09:31N 53°20' E 007°11'0 0.0
2014-Sep-20 08:31N 53°20' E 007°11'0 0.0
2014-Sep-20 07:31N 53°20' E 007°11'0 0.0
2014-Sep-20 06:31N 53°20' E 007°11'0 0.0
2014-Sep-20 05:31N 53°20' E 007°11'0 0.0
2014-Sep-20 04:31N 53°20' E 007°11'0 0.0
2014-Sep-20 03:31N 53°20' E 007°11'0 0.0
2014-Sep-20 02:31N 53°20' E 007°11'0 0.0
2014-Sep-20 01:31N 53°20' E 007°11'0 0.0
2014-Sep-20 00:31N 53°20' E 007°11'0 0.0
2014-Sep-19 23:31N 53°20' E 007°11'0 0.0
2014-Sep-19 22:31N 53°20' E 007°11'0 0.0
2014-Sep-19 21:31N 53°20' E 007°11'0 0.0
2014-Sep-19 20:31N 53°20' E 007°11'0 0.0
2014-Sep-19 19:31N 53°20' E 007°11'0 0.1
2014-Sep-19 18:34N 53°20' E 007°11'5 5.5
2014-Sep-19 17:34N 53°19' E 007°02'1211.9
2014-Sep-19 16:33N 53°29' E 006°50'1413.6
2014-Sep-19 15:33N 53°37' E 006°31'8 7.8
2014-Sep-19 14:33N 53°36' E 006°18'0 0.0
2014-Sep-19 13:30N 53°36' E 006°18'0 0.0
2014-Sep-19 12:30N 53°36' E 006°18'0 0.0
2014-Sep-19 11:33N 53°36' E 006°18'0 0.0
2014-Sep-19 10:12N 53°36' E 006°18'0 0.0
2014-Sep-19 09:33N 53°36' E 006°18'0 0.0
2014-Sep-19 07:33N 53°36' E 006°18'0 0.0
2014-Sep-19 06:33N 53°36' E 006°18'0 0.1
2014-Sep-19 05:33N 53°36' E 006°18'0 0.0
2014-Sep-19 04:33N 53°36' E 006°18'0 0.0
2014-Sep-19 03:33N 53°36' E 006°18'0 0.0
2014-Sep-19 02:33N 53°36' E 006°18'0 0.0
2014-Sep-19 01:30N 53°36' E 006°18'0 0.1
2014-Sep-19 00:33N 53°36' E 006°18'0 0.0
2014-Sep-18 23:33N 53°36' E 006°18'0 0.0
2014-Sep-18 22:33N 53°36' E 006°18'0 0.0
2014-Sep-18 21:33N 53°36' E 006°18'0 0.5
2014-Sep-18 20:33N 53°37' E 006°17'1111.1
2014-Sep-18 19:33N 53°44' E 006°32'1717.1
2014-Sep-18 18:34N 53°48' E 006°60'2316.5
2014-Sep-18 17:10N 53°53' E 007°37'914.0
2014-Sep-18 16:33N 53°52' E 007°52'1212.6
2014-Sep-18 15:33N 53°46' E 008°11'1414.4
2014-Sep-18 14:33N 53°37' E 008°29'3 3.3
2014-Sep-18 13:31N 53°34' E 008°33'0 0.4
2014-Sep-18 12:31N 53°35' E 008°33'0 0.0
2014-Sep-18 11:31N 53°35' E 008°33'0 0.0
2014-Sep-18 10:31N 53°35' E 008°33'0 0.0
2014-Sep-18 09:31N 53°35' E 008°33'0 0.0
2014-Sep-18 08:31N 53°35' E 008°33'0 0.0
2014-Sep-18 07:31N 53°35' E 008°33'0 0.0
2014-Sep-18 06:31N 53°35' E 008°33'0 0.0
2014-Sep-18 05:31N 53°35' E 008°33'0 0.0
2014-Sep-18 04:31N 53°35' E 008°33'0 0.0
2014-Sep-18 03:31N 53°35' E 008°33'0 0.0
2014-Sep-18 02:31N 53°35' E 008°33'0 0.0
2014-Sep-18 01:31N 53°35' E 008°33'0 0.0
2014-Sep-18 00:31N 53°35' E 008°33'0 0.0
2014-Sep-17 23:31N 53°35' E 008°33'0 0.0
2014-Sep-17 22:31N 53°35' E 008°33'0 0.0
2014-Sep-17 21:31N 53°35' E 008°33'0 0.0
2014-Sep-17 20:31N 53°35' E 008°33'0 0.0
2014-Sep-17 19:31N 53°35' E 008°33'0 0.0
2014-Sep-17 18:31N 53°35' E 008°33'0 0.0
2014-Sep-17 17:31N 53°35' E 008°33'0 0.0
2014-Sep-17 16:31N 53°35' E 008°33'0 0.0
2014-Sep-17 15:31N 53°35' E 008°33'0 0.0
2014-Sep-17 14:31N 53°35' E 008°33'0 0.0
2014-Sep-17 13:31N 53°35' E 008°33'0 0.0
2014-Sep-17 12:31N 53°35' E 008°33'0 0.2
2014-Sep-17 11:31N 53°34' E 008°33'1 0.5
2014-Sep-17 10:33N 53°34' E 008°33'1010.5
2014-Sep-17 09:33N 53°41' E 008°21'1313.4
2014-Sep-17 08:33N 53°50' E 008°03'1010.5
2014-Sep-17 07:33N 53°54' E 007°47'0 0.4
2014-Sep-17 06:32N 53°54' E 007°46'0 0.1
2014-Sep-17 05:32N 53°54' E 007°46'0 0.0
2014-Sep-17 04:32N 53°54' E 007°46'0 0.0
2014-Sep-17 03:32N 53°54' E 007°46'0 0.0
2014-Sep-17 02:32N 53°54' E 007°46'0 0.1
2014-Sep-17 01:32N 53°54' E 007°46'0 0.0
2014-Sep-17 00:32N 53°54' E 007°46'0 0.0
2014-Sep-16 23:32N 53°54' E 007°46'0 0.0
2014-Sep-16 22:32N 53°54' E 007°46'0 0.0
2014-Sep-16 21:32N 53°54' E 007°46'0 0.1
2014-Sep-16 20:32N 53°54' E 007°46'0 0.0
2014-Sep-16 19:32N 53°54' E 007°46'0 0.0
2014-Sep-16 18:32N 53°54' E 007°46'2 2.2
2014-Sep-16 17:33N 53°54' E 007°43'2813.4
2014-Sep-16 15:29N 53°49' E 006°57'1314.5
2014-Sep-16 14:33N 53°46' E 006°34'1413.7
2014-Sep-16 13:33N 53°37' E 006°17'1 1.4
2014-Sep-16 12:33N 53°36' E 006°16'3 3.4
2014-Sep-16 11:33N 53°38' E 006°11'1716.7
2014-Sep-16 10:33N 53°36' E 005°43'1818.3
2014-Sep-16 09:33N 53°31' E 005°14'1818.2
2014-Sep-16 08:33N 53°24' E 004°46'4118.0
2014-Sep-16 06:18N 52°49' E 004°12'1317.7
2014-Sep-16 05:33N 52°39' E 003°57'1817.5
2014-Sep-16 04:33N 52°25' E 003°39'1816.9
2014-Sep-16 03:30N 52°10' E 003°26'1616.8
2014-Sep-16 02:33N 51°54' E 003°21'1615.2
2014-Sep-16 01:29N 51°43' E 003°02'1515.8
2014-Sep-16 00:33N 51°32' E 002°46'1010.3
2014-Sep-15 23:33N 51°22' E 002°48'1514.7
2014-Sep-15 22:33N 51°21' E 003°12'1 1.2
2014-Sep-15 21:30N 51°20' E 003°13'1 0.8
2014-Sep-15 20:29N 51°19' E 003°13'0 0.0
2014-Sep-15 19:26N 51°19' E 003°13'0 0.0
2014-Sep-15 18:29N 51°19' E 003°13'0 0.0
2014-Sep-15 17:29N 51°19' E 003°13'0 0.0
2014-Sep-15 16:32N 51°19' E 003°13'0 0.0
2014-Sep-15 15:32N 51°19' E 003°13'0 0.0
2014-Sep-15 14:32N 51°19' E 003°13'0 0.0
2014-Sep-15 13:32N 51°19' E 003°13'0 0.0
2014-Sep-15 12:26N 51°19' E 003°13'0 0.0
2014-Sep-15 11:32N 51°19' E 003°13'0 0.0
2014-Sep-15 10:32N 51°19' E 003°13'2 1.3
2014-Sep-15 09:24N 51°18' E 003°14'0 0.0
2014-Sep-15 08:33N 51°18' E 003°14'0 0.0
2014-Sep-15 07:33N 51°18' E 003°14'0 0.0
2014-Sep-15 06:30N 51°18' E 003°14'0 0.0
2014-Sep-15 05:30N 51°18' E 003°14'0 0.0
2014-Sep-15 04:33N 51°18' E 003°14'0 0.2
2014-Sep-15 03:33N 51°18' E 003°14'2 1.9
2014-Sep-15 02:33N 51°20' E 003°13'5 4.6
2014-Sep-15 01:34N 51°24' E 003°08'1713.4
2014-Sep-15 00:19N 51°22' E 002°41'5 6.4
2014-Sep-14 23:33N 51°22' E 002°34'1515.3
2014-Sep-14 22:33N 51°15' E 002°12'1616.2
2014-Sep-14 21:34N 51°08' E 001°49'1615.9
2014-Sep-14 20:34N 50°56' E 001°31'2416.3
2014-Sep-14 19:05N 50°36' E 001°11'917.4
2014-Sep-14 18:33N 50°30' E 000°60'1717.0
2014-Sep-14 17:34N 50°26' E 000°34'3416.9
2014-Sep-14 15:32N 50°18' W 000°19'2417.7
2014-Sep-14 14:11N 50°19' W 000°56'1218.9
2014-Sep-14 13:33N 50°20' W 001°14'  
2014-Sep-11 22:21N 38°09' W 011°06'1918.3
2014-Sep-11 21:20N 37°52' W 011°15'  
Track history (hours):
 
Tides and Currents Weather Stations Pressure Air Temp Water Temp Dewpoint Dewpoint Depression Visibility Wind Speed Wind Dir Waves Ship Positions

Sincerity Ace

Last reported at 2014-Sep-21 20:33 UTC. Time now 2014-Oct-01 14:19 UTC.
Position N 50°29' W 001°20'.
Warning: this ship's position is 9 days out of date.

Length 200 m; draft 9.5 m.

Type: Cargo ship. MMSI: 351690000.

Date/timePositionNaut miles runAvg speedWind from/ knotsBaromVisibWave heightAir tempDewpointWater temp
2014-Sep-21 20:33N 50°29' W 001°20'1716.3
2014-Sep-21 19:31N 50°29' W 000°54'1516.1
2014-Sep-21 18:33N 50°30' W 000°30'2016.9
2014-Sep-21 17:23N 50°31' E 000°02'1518.0
2014-Sep-21 16:34N 50°36' E 000°24'1919.1
2014-Sep-21 15:34N 50°44' E 000°51'2019.3
2014-Sep-21 14:31N 50°55' E 001°19'1818.4
2014-Sep-21 13:33N 51°08' E 001°37'1717.1
2014-Sep-21 12:34N 51°21' E 001°54'1716.7
2014-Sep-21 11:33N 51°34' E 002°11'8018.0
2014-Sep-21 07:08N 52°37' E 003°30'1119.0
2014-Sep-21 06:33N 52°46' E 003°41'1818.2
2014-Sep-21 05:33N 52°59' E 004°02'2417.4
2014-Sep-21 04:11N 53°17' E 004°28'1117.1
2014-Sep-21 03:34N 53°27' E 004°36'1717.1
2014-Sep-21 02:34N 53°34' E 005°01'1818.1
2014-Sep-21 01:34N 53°40' E 005°30'1817.9
2014-Sep-21 00:34N 53°43' E 006°00'1514.7
2014-Sep-20 23:33N 53°37' E 006°23'1716.9
2014-Sep-20 22:34N 53°30' E 006°49'1212.1
2014-Sep-20 21:33N 53°20' E 007°00'6 6.1
2014-Sep-20 20:31N 53°20' E 007°11'0 0.0
2014-Sep-20 19:31N 53°20' E 007°11'0 0.0
2014-Sep-20 18:31N 53°20' E 007°11'0 0.0
2014-Sep-20 17:31N 53°20' E 007°11'0 0.0
2014-Sep-20 16:31N 53°20' E 007°11'0 0.0
2014-Sep-20 15:31N 53°20' E 007°11'0 0.0
2014-Sep-20 14:31N 53°20' E 007°11'0 0.0
2014-Sep-20 13:31N 53°20' E 007°11'0 0.0
2014-Sep-20 12:31N 53°20' E 007°11'0 0.0
2014-Sep-20 11:31N 53°20' E 007°11'0 0.0
2014-Sep-20 10:31N 53°20' E 007°11'0 0.0
2014-Sep-20 09:31N 53°20' E 007°11'0 0.0
2014-Sep-20 08:31N 53°20' E 007°11'0 0.0
2014-Sep-20 07:31N 53°20' E 007°11'0 0.0
2014-Sep-20 06:31N 53°20' E 007°11'0 0.0
2014-Sep-20 05:31N 53°20' E 007°11'0 0.0
2014-Sep-20 04:31N 53°20' E 007°11'0 0.0
2014-Sep-20 03:31N 53°20' E 007°11'0 0.0
2014-Sep-20 02:31N 53°20' E 007°11'0 0.0
2014-Sep-20 01:31N 53°20' E 007°11'0 0.0
2014-Sep-20 00:31N 53°20' E 007°11'0 0.0
2014-Sep-19 23:31N 53°20' E 007°11'0 0.0
2014-Sep-19 22:31N 53°20' E 007°11'0 0.0
2014-Sep-19 21:31N 53°20' E 007°11'0 0.0
2014-Sep-19 20:31N 53°20' E 007°11'0 0.0
2014-Sep-19 19:31N 53°20' E 007°11'0 0.1
2014-Sep-19 18:34N 53°20' E 007°11'5 5.5
2014-Sep-19 17:34N 53°19' E 007°02'1211.9
2014-Sep-19 16:33N 53°29' E 006°50'1413.6
2014-Sep-19 15:33N 53°37' E 006°31'8 7.8
2014-Sep-19 14:33N 53°36' E 006°18'0 0.0
2014-Sep-19 13:30N 53°36' E 006°18'0 0.0
2014-Sep-19 12:30N 53°36' E 006°18'0 0.0
2014-Sep-19 11:33N 53°36' E 006°18'0 0.0
2014-Sep-19 10:12N 53°36' E 006°18'0 0.0
2014-Sep-19 09:33N 53°36' E 006°18'0 0.0
2014-Sep-19 07:33N 53°36' E 006°18'0 0.0
2014-Sep-19 06:33N 53°36' E 006°18'0 0.1
2014-Sep-19 05:33N 53°36' E 006°18'0 0.0
2014-Sep-19 04:33N 53°36' E 006°18'0 0.0
2014-Sep-19 03:33N 53°36' E 006°18'0 0.0
2014-Sep-19 02:33N 53°36' E 006°18'0 0.0
2014-Sep-19 01:30N 53°36' E 006°18'0 0.1
2014-Sep-19 00:33N 53°36' E 006°18'0 0.0
2014-Sep-18 23:33N 53°36' E 006°18'0 0.0
2014-Sep-18 22:33N 53°36' E 006°18'0 0.0
2014-Sep-18 21:33N 53°36' E 006°18'0 0.5
2014-Sep-18 20:33N 53°37' E 006°17'1111.1
2014-Sep-18 19:33N 53°44' E 006°32'1717.1
2014-Sep-18 18:34N 53°48' E 006°60'2316.5
2014-Sep-18 17:10N 53°53' E 007°37'914.0
2014-Sep-18 16:33N 53°52' E 007°52'1212.6
2014-Sep-18 15:33N 53°46' E 008°11'1414.4
2014-Sep-18 14:33N 53°37' E 008°29'3 3.3
2014-Sep-18 13:31N 53°34' E 008°33'0 0.4
2014-Sep-18 12:31N 53°35' E 008°33'0 0.0
2014-Sep-18 11:31N 53°35' E 008°33'0 0.0
2014-Sep-18 10:31N 53°35' E 008°33'0 0.0
2014-Sep-18 09:31N 53°35' E 008°33'0 0.0
2014-Sep-18 08:31N 53°35' E 008°33'0 0.0
2014-Sep-18 07:31N 53°35' E 008°33'0 0.0
2014-Sep-18 06:31N 53°35' E 008°33'0 0.0
2014-Sep-18 05:31N 53°35' E 008°33'0 0.0
2014-Sep-18 04:31N 53°35' E 008°33'0 0.0
2014-Sep-18 03:31N 53°35' E 008°33'0 0.0
2014-Sep-18 02:31N 53°35' E 008°33'0 0.0
2014-Sep-18 01:31N 53°35' E 008°33'0 0.0
2014-Sep-18 00:31N 53°35' E 008°33'0 0.0
2014-Sep-17 23:31N 53°35' E 008°33'0 0.0
2014-Sep-17 22:31N 53°35' E 008°33'0 0.0
2014-Sep-17 21:31N 53°35' E 008°33'0 0.0
2014-Sep-17 20:31N 53°35' E 008°33'0 0.0
2014-Sep-17 19:31N 53°35' E 008°33'0 0.0
2014-Sep-17 18:31N 53°35' E 008°33'0 0.0
2014-Sep-17 17:31N 53°35' E 008°33'0 0.0
2014-Sep-17 16:31N 53°35' E 008°33'0 0.0
2014-Sep-17 15:31N 53°35' E 008°33'0 0.0
2014-Sep-17 14:31N 53°35' E 008°33'0 0.0
2014-Sep-17 13:31N 53°35' E 008°33'0 0.0
2014-Sep-17 12:31N 53°35' E 008°33'0 0.2
2014-Sep-17 11:31N 53°34' E 008°33'1 0.5
2014-Sep-17 10:33N 53°34' E 008°33'1010.5
2014-Sep-17 09:33N 53°41' E 008°21'1313.4
2014-Sep-17 08:33N 53°50' E 008°03'1010.5
2014-Sep-17 07:33N 53°54' E 007°47'0 0.4
2014-Sep-17 06:32N 53°54' E 007°46'0 0.1
2014-Sep-17 05:32N 53°54' E 007°46'0 0.0
2014-Sep-17 04:32N 53°54' E 007°46'0 0.0
2014-Sep-17 03:32N 53°54' E 007°46'0 0.0
2014-Sep-17 02:32N 53°54' E 007°46'0 0.1
2014-Sep-17 01:32N 53°54' E 007°46'0 0.0
2014-Sep-17 00:32N 53°54' E 007°46'0 0.0
2014-Sep-16 23:32N 53°54' E 007°46'0 0.0
2014-Sep-16 22:32N 53°54' E 007°46'0 0.0
2014-Sep-16 21:32N 53°54' E 007°46'0 0.1
2014-Sep-16 20:32N 53°54' E 007°46'0 0.0
2014-Sep-16 19:32N 53°54' E 007°46'0 0.0
2014-Sep-16 18:32N 53°54' E 007°46'2 2.2
2014-Sep-16 17:33N 53°54' E 007°43'2813.4
2014-Sep-16 15:29N 53°49' E 006°57'1314.5
2014-Sep-16 14:33N 53°46' E 006°34'1413.7
2014-Sep-16 13:33N 53°37' E 006°17'1 1.4
2014-Sep-16 12:33N 53°36' E 006°16'3 3.4
2014-Sep-16 11:33N 53°38' E 006°11'1716.7
2014-Sep-16 10:33N 53°36' E 005°43'1818.3
2014-Sep-16 09:33N 53°31' E 005°14'1818.2
2014-Sep-16 08:33N 53°24' E 004°46'4118.0
2014-Sep-16 06:18N 52°49' E 004°12'1317.7
2014-Sep-16 05:33N 52°39' E 003°57'1817.5
2014-Sep-16 04:33N 52°25' E 003°39'1816.9
2014-Sep-16 03:30N 52°10' E 003°26'1616.8
2014-Sep-16 02:33N 51°54' E 003°21'1615.2
2014-Sep-16 01:29N 51°43' E 003°02'1515.8
2014-Sep-16 00:33N 51°32' E 002°46'1010.3
2014-Sep-15 23:33N 51°22' E 002°48'1514.7
2014-Sep-15 22:33N 51°21' E 003°12'1 1.2
2014-Sep-15 21:30N 51°20' E 003°13'1 0.8
2014-Sep-15 20:29N 51°19' E 003°13'0 0.0
2014-Sep-15 19:26N 51°19' E 003°13'0 0.0
2014-Sep-15 18:29N 51°19' E 003°13'0 0.0
2014-Sep-15 17:29N 51°19' E 003°13'0 0.0
2014-Sep-15 16:32N 51°19' E 003°13'0 0.0
2014-Sep-15 15:32N 51°19' E 003°13'0 0.0
2014-Sep-15 14:32N 51°19' E 003°13'0 0.0
2014-Sep-15 13:32N 51°19' E 003°13'0 0.0
2014-Sep-15 12:26N 51°19' E 003°13'0 0.0
2014-Sep-15 11:32N 51°19' E 003°13'0 0.0
2014-Sep-15 10:32N 51°19' E 003°13'2 1.3
2014-Sep-15 09:24N 51°18' E 003°14'0 0.0
2014-Sep-15 08:33N 51°18' E 003°14'0 0.0
2014-Sep-15 07:33N 51°18' E 003°14'0 0.0
2014-Sep-15 06:30N 51°18' E 003°14'0 0.0
2014-Sep-15 05:30N 51°18' E 003°14'0 0.0
2014-Sep-15 04:33N 51°18' E 003°14'0 0.2
2014-Sep-15 03:33N 51°18' E 003°14'2 1.9
2014-Sep-15 02:33N 51°20' E 003°13'5 4.6
2014-Sep-15 01:34N 51°24' E 003°08'1713.4
2014-Sep-15 00:19N 51°22' E 002°41'5 6.4
2014-Sep-14 23:33N 51°22' E 002°34'1515.3
2014-Sep-14 22:33N 51°15' E 002°12'1616.2
2014-Sep-14 21:34N 51°08' E 001°49'1615.9
2014-Sep-14 20:34N 50°56' E 001°31'2416.3
2014-Sep-14 19:05N 50°36' E 001°11'917.4
2014-Sep-14 18:33N 50°30' E 000°60'1717.0
2014-Sep-14 17:34N 50°26' E 000°34'3416.9
2014-Sep-14 15:32N 50°18' W 000°19'2417.7
2014-Sep-14 14:11N 50°19' W 000°56'1218.9
2014-Sep-14 13:33N 50°20' W 001°14'  
2014-Sep-11 22:21N 38°09' W 011°06'1918.3
2014-Sep-11 21:20N 37°52' W 011°15'  

Dump ship's entire track history